Washington Executive (W32)
Clinton, MD
Field Elevation: 249
Lat: 38°44.89N  Long: 76°55.97W
CTAF/Unicom Freq: 122.8000
   
    
Weather Advisories
2017-11-20   20:43 Z
Altimeter 30.19" Hg
Wind 239° @ 7 KT
Gusts 10 KT
Temperature 10° C (50° F)
Dewpoint -99° C (-146° F)
Relative Humidity 0%
Density Altitude -647 feet
Condensation Altitude 13,382 feet
Wind Chill: 8° C (46° F)
Wind and Runways
Indicated Runway = 23
Headwind = 7 kt
Crosswind = 1 kt
History
 
 
 
More Info
All DigiWx sites map
Weather Radar
NOAA Forecast
 
Airport IQ 5010
(HMIEM) Shock Trauma Ctr
(26N) Ocean City
 
about DigiWx
 
FAA Disclaimer: The data displayed is for advisory purposes only and is not to be used for flight planning or operations. For official data, please call (not available) to hear the current automated AWOS voice message.
  METAR W32 202043Z AUTO 24007G10KT 10/M99 A3019